Atwood, CO

5:18 PM MDT on August 22, 2014 (GMT -0600)
Fort Morgan | Change Station
CLOSE
Current Station
Airport
Location: Fort Morgan,
Elevation: 4570 ft
Nearby Weather Stations

Elev 4570 ft 40.33 °N, 103.80 °W | Updated 23 minutes ago

Overcast
Overcast
64 °F
Feels Like 64 °F
N
0
Wind Variable Wind from North

Today
High -- | Low -- °F
--% Chance of Precip.
Yesterday
High -- | Low -- °F
Precip. -- in
6:10 AM 7:40 PM
Waning Crescent, 6% visible
Pressure 30.11 in
Visibility 4.0 miles
Clouds Mostly Cloudy 4700 ft
Overcast 5500 ft
Dew Point 61 °F
Humidity 90%
Rainfall 0.00 in
Snow Depth Not available.
UV 1 out of 12
Pollen 9.40 out of 12
Air Quality Not available.
Flu Activity Not available.
METAR KFMM 222255Z AUTO 00000KT 4SM BKN047 OVC055 18/16 A3011 RMK AO2 T01760159 PWINO

More Conditions Fewer Conditions

Pressure 30.11 in
Visibility 4.0 miles
Clouds Mostly Cloudy 4700 ft
Overcast 5500 ft
Dew Point 61 °F
Humidity 90%
Rainfall 0.00 in
Snow Depth Not available.
UV 1 out of 12
Pollen 9.40 out of 12
Air Quality Not available.
Flu Activity Not available.
METAR KFMM 222255Z AUTO 00000KT 4SM BKN047 OVC055 18/16 A3011 RMK AO2 T01760159 PWINO

More Conditions Fewer Conditions

Nowcast | as of 5:16 PM MDT on August 22, 2014

Showers and thunderstorms will spread from south to north across the northeastern plains through 8 PM...most numerous across Morgan...western Logan and northeastern Weld counties. Heavy rain...hail...frequent cloud to ground lightning and wind gusts to 50 mph will be possible with the stronger storms.

×

10-Day Weather Forecast

Almanac

Astronomy

Aug. 22, 2014 Rise Set
Actual Time 6:10 AM MDT 7:40 PM MDT
Civil Twilight 5:41 AM MDT 8:09 PM MDT
Nautical Twilight 5:07 AM MDT 8:43 PM MDT
Astronomical Twilight 4:30 AM MDT 9:20 PM MDT
Moon 3:34 AM MDT 5:50 PM MDT
Length of Visible Light 14h 27m
Length of Day
13h 29m
Tomorrow will be 2m 28s shorter.
Waning Crescent, 6% of the Moon is Illuminated
Today
Waning Crescent
Aug 25
New
Sep 2
First Quarter
Sep 8
Full
Sep 15
Last Quarter

Today's Extremes

State Highs State Lows

Community

WunderPhotos

Upload Photos

1,746,302 photos uploaded!

WunderBlogs® & News

By Dr. Jeff Masters
Director of Meteorology, Weather Underground
By Kari Strenfel
Meteorologist, Weather Underground
By Christopher C. Burt
Weather Historian, Weather Underground
August 22, 2014
August 22, 2014
August 22, 2014

Nearby

Snow Depth

Station Depth Elevation
Copeland Lake 0 in 8600 ft
Wild Basin 0 in 9560 ft
Niwot 1 in 9910 ft
University Camp 0 in 10300 ft
Willow Park 0 in 10700 ft

Earthquake Activity

City Distance Mag. Time & Date
No recent earthquake activity has been reported nearby.
Minimum magnitude displayed is 2.5.

Coastal Water Temperatures

Place Temperature
No Stations Reporting

Nearby Weather Stations